Time;durP1;ratioP1;P1;durP2;ratioP2;P2;SDS_P1;SDS_P2;PMS_P1;PMS_P2;Temp;Humidity;BMP_temperature;BMP_pressure;BME280_temperature;BME280_humidity;BME280_pressure;Samples;Min_cycle;Max_cycle;Signal;HPM_P1;HPM_P2
2021/12/23 00:00:49;;;;;;;5.90;4.15;;;;;;;;;;5054725;28;20114;-72
2021/12/23 00:03:17;;;;;;;5.88;4.07;;;;;;;;;;5054887;28;20098;-71
2021/12/23 00:05:44;;;;;;;7.20;3.78;;;;;;;;;;5055000;28;20120;-70
2021/12/23 00:08:12;;;;;;;4.68;3.08;;;;;;;;;;5054787;28;20032;-72
2021/12/23 00:10:40;;;;;;;5.15;3.30;;;;;;;;;;5037008;28;20045;-71
2021/12/23 00:13:08;;;;;;;3.10;2.80;;;;;;;;;;5054044;28;20212;-73
2021/12/23 00:23:27;;;;;;;3.95;3.35;;;;;;;;;;5054595;28;19927;-71
2021/12/23 00:25:57;;;;;;;4.70;3.28;;;;;;;;;;5054299;28;20051;-70
2021/12/23 00:28:24;;;;;;;6.95;3.08;;;;;;;;;;5054465;28;20040;-73
2021/12/23 00:30:52;;;;;;;7.35;2.78;;;;;;;;;;5054198;28;20033;-70
2021/12/23 00:33:22;;;;;;;7.25;2.50;;;;;;;;;;5054245;28;20556;-71
2021/12/23 00:35:52;;;;;;;10.65;2.95;;;;;;;;;;5054033;28;20527;-72
2021/12/23 00:38:26;;;;;;;6.93;2.17;;;;;;;;;;5054212;28;20060;-72
2021/12/23 00:40:53;;;;;;;3.80;1.92;;;;;;;;;;5054235;28;20068;-72
2021/12/23 00:43:21;;;;;;;5.90;2.22;;;;;;;;;;5054732;28;20044;-72
2021/12/23 00:45:49;;;;;;;3.15;1.98;;;;;;;;;;5053940;28;20053;-76
2021/12/23 00:48:17;;;;;;;7.25;2.45;;;;;;;;;;5053695;28;20044;-70
2021/12/23 00:50:46;;;;;;;5.32;2.22;;;;;;;;;;5036578;28;20453;-71
2021/12/23 00:53:18;;;;;;;4.78;2.40;;;;;;;;;;5036219;28;20037;-76
2021/12/23 00:55:49;;;;;;;5.88;2.13;;;;;;;;;;5053996;28;20484;-72
2021/12/23 00:58:16;;;;;;;3.50;1.63;;;;;;;;;;5053808;28;20403;-73
2021/12/23 01:00:44;;;;;;;5.00;2.22;;;;;;;;;;5053446;28;20484;-72
2021/12/23 01:03:12;;;;;;;4.35;1.80;;;;;;;;;;5053919;28;20045;-76
2021/12/23 01:05:41;;;;;;;10.40;2.10;;;;;;;;;;5053722;28;20389;-73
2021/12/23 01:08:08;;;;;;;5.30;2.53;;;;;;;;;;5053554;28;20044;-73
2021/12/23 01:10:36;;;;;;;6.43;2.20;;;;;;;;;;5053633;28;20377;-75
2021/12/23 01:13:04;;;;;;;7.20;2.30;;;;;;;;;;5035406;28;20041;-70
2021/12/23 01:18:09;;;;;;;3.58;1.83;;;;;;;;;;5053605;28;20405;-72
2021/12/23 01:20:38;;;;;;;7.35;2.00;;;;;;;;;;5053523;28;20168;-73
2021/12/23 01:23:05;;;;;;;2.72;2.15;;;;;;;;;;5035453;28;20098;-72
2021/12/23 01:25:33;;;;;;;3.30;2.20;;;;;;;;;;5034898;28;20040;-75
2021/12/23 01:28:01;;;;;;;4.90;2.13;;;;;;;;;;5053205;28;20060;-71
2021/12/23 01:30:30;;;;;;;2.72;2.08;;;;;;;;;;5053160;28;20041;-71
2021/12/23 01:32:58;;;;;;;5.25;2.38;;;;;;;;;;5034689;28;20140;-73
2021/12/23 01:35:26;;;;;;;4.03;2.17;;;;;;;;;;5052539;28;20431;-76
2021/12/23 01:37:54;;;;;;;6.25;2.50;;;;;;;;;;5053029;28;20041;-72
2021/12/23 01:40:24;;;;;;;5.68;2.63;;;;;;;;;;5053086;28;20048;-72
2021/12/23 01:42:51;;;;;;;4.25;2.25;;;;;;;;;;5035269;28;20492;-72
2021/12/23 01:45:20;;;;;;;5.68;2.50;;;;;;;;;;5052917;28;20056;-73
2021/12/23 01:47:48;;;;;;;4.20;2.60;;;;;;;;;;5052916;28;20044;-76
2021/12/23 01:50:17;;;;;;;9.68;2.30;;;;;;;;;;5052937;28;20103;-73
2021/12/23 01:52:44;;;;;;;3.60;2.00;;;;;;;;;;5053048;28;20235;-71
2021/12/23 01:55:12;;;;;;;7.85;2.10;;;;;;;;;;5052962;28;20106;-73
2021/12/23 01:57:40;;;;;;;4.97;2.00;;;;;;;;;;5052852;28;20477;-73
2021/12/23 02:00:10;;;;;;;5.05;2.25;;;;;;;;;;5035008;28;20037;-73
2021/12/23 02:02:41;;;;;;;4.50;2.13;;;;;;;;;;5035012;28;20041;-73
2021/12/23 02:05:09;;;;;;;3.45;2.10;;;;;;;;;;5053078;28;20045;-74
2021/12/23 02:07:37;;;;;;;4.50;1.90;;;;;;;;;;5035007;28;20041;-71
2021/12/23 02:10:06;;;;;;;4.60;2.38;;;;;;;;;;5034634;28;20139;-71
2021/12/23 02:12:34;;;;;;;6.53;2.53;;;;;;;;;;5034849;28;20493;-76
2021/12/23 02:15:02;;;;;;;4.43;2.35;;;;;;;;;;5034709;28;20045;-76
2021/12/23 02:17:34;;;;;;;6.25;2.65;;;;;;;;;;5052949;28;20047;-73
2021/12/23 02:20:02;;;;;;;5.90;2.50;;;;;;;;;;5034876;28;20127;-73
2021/12/23 02:22:29;;;;;;;3.35;2.20;;;;;;;;;;5035068;28;20496;-73
2021/12/23 02:24:56;;;;;;;5.43;2.53;;;;;;;;;;5052283;28;20045;-73
2021/12/23 02:27:24;;;;;;;4.70;2.22;;;;;;;;;;5052696;28;20037;-76
2021/12/23 02:29:51;;;;;;;6.85;2.75;;;;;;;;;;5034630;28;20128;-71
2021/12/23 02:32:19;;;;;;;4.05;2.53;;;;;;;;;;5052447;28;20041;-73
2021/12/23 02:34:46;;;;;;;3.35;2.38;;;;;;;;;;5052533;28;20051;-71
2021/12/23 02:37:14;;;;;;;4.97;2.20;;;;;;;;;;5055355;28;20033;-73
2021/12/23 02:39:43;;;;;;;5.35;2.20;;;;;;;;;;5056548;28;20064;-71
2021/12/23 02:42:11;;;;;;;5.78;2.42;;;;;;;;;;5038602;28;20049;-77
2021/12/23 02:44:38;;;;;;;6.00;2.40;;;;;;;;;;5056294;28;20128;-71
2021/12/23 02:47:06;;;;;;;5.28;2.20;;;;;;;;;;5038561;28;20060;-73
2021/12/23 02:49:34;;;;;;;6.43;2.38;;;;;;;;;;5047782;28;20048;-71
2021/12/23 02:52:01;;;;;;;5.53;2.78;;;;;;;;;;5056439;28;20052;-71
2021/12/23 02:54:29;;;;;;;4.97;2.70;;;;;;;;;;5055953;28;20140;-72
2021/12/23 02:56:58;;;;;;;7.72;2.33;;;;;;;;;;5056092;28;20041;-71
2021/12/23 02:59:26;;;;;;;7.72;2.50;;;;;;;;;;5056137;28;20167;-73
2021/12/23 03:01:54;;;;;;;6.45;2.92;;;;;;;;;;5055504;28;20045;-73
2021/12/23 03:04:22;;;;;;;5.38;2.55;;;;;;;;;;5038161;28;20059;-73
2021/12/23 03:06:49;;;;;;;4.28;2.22;;;;;;;;;;5055995;28;20492;-74
2021/12/23 03:09:17;;;;;;;5.65;2.30;;;;;;;;;;5055919;28;20524;-73
2021/12/23 03:11:44;;;;;;;5.80;2.50;;;;;;;;;;5055852;28;20132;-76
2021/12/23 03:14:14;;;;;;;5.47;2.20;;;;;;;;;;5055928;28;20091;-73
2021/12/23 03:16:41;;;;;;;6.53;2.47;;;;;;;;;;5055679;28;20527;-76
2021/12/23 03:19:09;;;;;;;6.47;2.33;;;;;;;;;;5055875;28;20041;-71
2021/12/23 03:21:37;;;;;;;3.67;2.53;;;;;;;;;;5055821;28;20072;-73
2021/12/23 03:24:05;;;;;;;4.80;2.25;;;;;;;;;;5055253;28;20045;-73
2021/12/23 03:26:32;;;;;;;4.15;2.40;;;;;;;;;;5055754;28;20041;-77
2021/12/23 03:29:00;;;;;;;5.40;2.40;;;;;;;;;;5055583;28;20041;-73
2021/12/23 03:31:27;;;;;;;4.70;2.47;;;;;;;;;;5055458;28;20044;-72
2021/12/23 03:33:55;;;;;;;8.25;2.38;;;;;;;;;;5036909;28;20561;-76
2021/12/23 03:36:23;;;;;;;5.60;2.50;;;;;;;;;;5055244;28;20131;-73
2021/12/23 03:38:50;;;;;;;4.00;2.30;;;;;;;;;;5055359;28;20439;-73
2021/12/23 03:41:18;;;;;;;4.22;2.30;;;;;;;;;;5055491;28;20045;-73
2021/12/23 03:43:46;;;;;;;4.05;2.17;;;;;;;;;;5055409;28;20045;-73
2021/12/23 03:46:13;;;;;;;5.40;2.10;;;;;;;;;;5055075;28;20057;-71
2021/12/23 03:48:41;;;;;;;5.85;2.42;;;;;;;;;;5054324;28;20052;-73
2021/12/23 03:51:08;;;;;;;7.25;2.85;;;;;;;;;;5055259;28;20045;-73
2021/12/23 03:53:36;;;;;;;6.47;2.53;;;;;;;;;;5054996;28;20079;-73
2021/12/23 03:56:04;;;;;;;3.88;2.38;;;;;;;;;;5055087;28;20037;-71
2021/12/23 03:58:31;;;;;;;4.47;2.20;;;;;;;;;;5055072;28;20037;-71
2021/12/23 04:00:59;;;;;;;6.72;2.33;;;;;;;;;;5054686;28;20044;-72
2021/12/23 04:03:27;;;;;;;4.13;2.60;;;;;;;;;;5054987;28;20382;-74
2021/12/23 04:05:54;;;;;;;5.57;2.30;;;;;;;;;;5054927;28;20044;-73
2021/12/23 04:08:22;;;;;;;4.10;2.25;;;;;;;;;;5054922;28;20045;-73
2021/12/23 04:10:50;;;;;;;5.97;3.00;;;;;;;;;;5037493;28;20045;-73
2021/12/23 04:13:18;;;;;;;4.97;2.60;;;;;;;;;;5054461;28;20072;-73
2021/12/23 04:15:45;;;;;;;3.80;2.90;;;;;;;;;;5054608;28;20068;-73
2021/12/23 04:18:12;;;;;;;5.60;3.17;;;;;;;;;;5054751;28;20045;-73
2021/12/23 04:20:53;;;;;;;5.35;3.00;;;;;;;;;;5050775;28;20041;-76
2021/12/23 04:23:24;;;;;;;3.92;3.03;;;;;;;;;;5054597;28;20041;-76
2021/12/23 04:25:52;;;;;;;4.28;2.70;;;;;;;;;;5054407;28;20059;-73
2021/12/23 04:28:20;;;;;;;7.07;2.83;;;;;;;;;;5036675;28;20068;-76
2021/12/23 04:30:48;;;;;;;5.15;2.90;;;;;;;;;;5054619;28;20123;-74
2021/12/23 04:33:16;;;;;;;3.63;2.70;;;;;;;;;;5054311;28;20044;-76
2021/12/23 04:35:43;;;;;;;8.20;3.50;;;;;;;;;;5054485;28;20046;-73
2021/12/23 04:38:11;;;;;;;4.57;2.70;;;;;;;;;;5036051;28;20041;-72
2021/12/23 04:40:38;;;;;;;4.95;2.90;;;;;;;;;;5054275;28;20091;-72
2021/12/23 04:43:07;;;;;;;6.75;3.00;;;;;;;;;;5054221;28;20041;-76
2021/12/23 04:45:34;;;;;;;7.00;3.00;;;;;;;;;;5054055;28;20041;-71
2021/12/23 04:48:02;;;;;;;4.90;2.70;;;;;;;;;;5036370;28;20155;-76
2021/12/23 04:50:30;;;;;;;4.68;3.20;;;;;;;;;;5053792;28;20041;-71
2021/12/23 04:52:58;;;;;;;6.75;2.70;;;;;;;;;;5053896;28;20041;-73
2021/12/23 04:55:25;;;;;;;3.85;2.80;;;;;;;;;;5053820;28;20492;-76
2021/12/23 04:57:53;;;;;;;5.65;2.92;;;;;;;;;;5054007;28;20450;-72
2021/12/23 05:00:21;;;;;;;5.82;2.75;;;;;;;;;;5052520;28;20040;-73
2021/12/23 05:02:49;;;;;;;6.15;3.10;;;;;;;;;;5035915;28;20362;-73
2021/12/23 05:05:17;;;;;;;9.32;2.75;;;;;;;;;;5053778;28;20450;-72
2021/12/23 05:07:45;;;;;;;4.40;2.90;;;;;;;;;;5053770;28;20041;-75
2021/12/23 05:10:14;;;;;;;8.77;3.10;;;;;;;;;;5053595;28;20072;-71
2021/12/23 05:12:46;;;;;;;3.60;2.70;;;;;;;;;;5053601;28;20045;-70
2021/12/23 05:15:17;;;;;;;5.13;3.10;;;;;;;;;;5035965;28;20137;-73
2021/12/23 05:17:45;;;;;;;3.40;3.05;;;;;;;;;;5053300;28;20041;-73
2021/12/23 05:20:13;;;;;;;4.57;3.05;;;;;;;;;;5035976;28;20091;-73
2021/12/23 05:22:41;;;;;;;4.75;3.10;;;;;;;;;;5035463;28;20515;-71
2021/12/23 05:25:10;;;;;;;7.28;3.10;;;;;;;;;;5053442;28;20051;-70
2021/12/23 05:27:38;;;;;;;7.10;3.10;;;;;;;;;;5053456;28;20489;-73
2021/12/23 05:30:10;;;;;;;8.77;3.25;;;;;;;;;;5035347;28;20072;-70
2021/12/23 05:32:38;;;;;;;6.40;3.08;;;;;;;;;;5053638;28;20098;-73
2021/12/23 05:35:06;;;;;;;4.75;2.78;;;;;;;;;;5053228;28;20033;-76
2021/12/23 05:37:34;;;;;;;6.47;3.17;;;;;;;;;;5044741;28;20044;-73
2021/12/23 05:40:02;;;;;;;6.57;3.75;;;;;;;;;;5053385;28;20120;-71
2021/12/23 05:42:30;;;;;;;4.45;2.92;;;;;;;;;;5053157;28;20511;-73
2021/12/23 05:44:57;;;;;;;3.10;2.80;;;;;;;;;;5035363;28;20488;-73
2021/12/23 05:47:25;;;;;;;4.65;2.90;;;;;;;;;;5052978;28;20052;-72
2021/12/23 05:49:52;;;;;;;6.10;2.83;;;;;;;;;;5052825;28;20407;-75
2021/12/23 05:52:20;;;;;;;6.45;3.10;;;;;;;;;;5052718;28;20496;-72
2021/12/23 05:54:48;;;;;;;3.17;2.88;;;;;;;;;;5052950;28;20041;-70
2021/12/23 05:57:17;;;;;;;4.80;2.63;;;;;;;;;;5052980;28;20123;-72
2021/12/23 05:59:44;;;;;;;5.95;3.10;;;;;;;;;;5052554;28;20039;-77
2021/12/23 06:02:12;;;;;;;4.88;3.38;;;;;;;;;;5050219;28;20496;-72
2021/12/23 06:04:41;;;;;;;5.47;3.10;;;;;;;;;;5053609;28;20045;-75
2021/12/23 06:07:09;;;;;;;11.45;3.05;;;;;;;;;;5053337;28;20452;-71
2021/12/23 06:09:37;;;;;;;8.50;2.35;;;;;;;;;;5053149;28;20552;-74
2021/12/23 06:12:04;;;;;;;4.78;2.03;;;;;;;;;;5053135;28;20079;-72
2021/12/23 06:14:32;;;;;;;3.75;2.25;;;;;;;;;;5052538;28;20044;-70
2021/12/23 06:17:01;;;;;;;8.45;2.60;;;;;;;;;;5035386;28;20095;-74
2021/12/23 06:19:29;;;;;;;6.10;2.58;;;;;;;;;;5053101;28;20037;-76
2021/12/23 06:21:56;;;;;;;7.65;2.95;;;;;;;;;;5053013;28;20033;-75
2021/12/23 06:24:24;;;;;;;3.10;2.58;;;;;;;;;;5034987;28;20041;-72
2021/12/23 06:26:51;;;;;;;5.82;2.60;;;;;;;;;;5045686;28;20044;-72
2021/12/23 06:29:19;;;;;;;7.68;3.13;;;;;;;;;;5015330;28;20045;-73
2021/12/23 06:31:46;;;;;;;4.32;3.08;;;;;;;;;;5033190;28;20045;-73
2021/12/23 06:34:15;;;;;;;6.90;3.10;;;;;;;;;;5032789;28;20051;-70
2021/12/23 06:36:44;;;;;;;5.57;3.50;;;;;;;;;;5032592;28;20053;-74
2021/12/23 06:39:11;;;;;;;5.82;3.30;;;;;;;;;;5033050;28;20037;-71
2021/12/23 06:41:40;;;;;;;5.72;3.40;;;;;;;;;;5032411;28;20053;-70
2021/12/23 06:44:07;;;;;;;5.53;3.50;;;;;;;;;;5032946;28;20163;-75
2021/12/23 06:46:36;;;;;;;9.43;3.72;;;;;;;;;;5032327;28;20049;-69
2021/12/23 06:49:14;;;;;;;11.20;3.08;;;;;;;;;;5032487;28;20092;-71
2021/12/23 06:51:42;;;;;;;3.80;1.95;;;;;;;;;;5032455;28;20053;-71
2021/12/23 06:54:10;;;;;;;6.97;2.40;;;;;;;;;;5021107;28;20037;-71
2021/12/23 06:56:37;;;;;;;6.15;2.15;;;;;;;;;;5051900;28;20037;-69
2021/12/23 06:59:05;;;;;;;3.97;1.80;;;;;;;;;;5034018;28;20045;-70
2021/12/23 07:01:33;;;;;;;4.97;2.17;;;;;;;;;;5043359;28;20504;-71
2021/12/23 07:04:14;;;;;;;3.85;1.88;;;;;;;;;;5052070;28;20041;-73
2021/12/23 07:06:48;;;;;;;2.75;2.00;;;;;;;;;;5034372;28;20055;-71
2021/12/23 07:09:16;;;;;;;5.20;2.63;;;;;;;;;;5051748;28;20051;-72
2021/12/23 07:11:43;;;;;;;4.68;2.38;;;;;;;;;;5052553;28;20052;-73
2021/12/23 07:14:11;;;;;;;4.05;2.05;;;;;;;;;;5051097;28;20037;-71
2021/12/23 07:16:42;;;;;;;5.63;1.92;;;;;;;;;;5052122;28;20041;-72
2021/12/23 07:19:14;;;;;;;7.90;2.28;;;;;;;;;;5051313;28;20059;-74
2021/12/23 07:21:41;;;;;;;4.95;2.17;;;;;;;;;;5052525;28;20036;-71
2021/12/23 07:24:09;;;;;;;4.75;1.90;;;;;;;;;;5055440;28;20052;-71
2021/12/23 07:26:36;;;;;;;10.63;2.58;;;;;;;;;;5055873;28;20049;-73
2021/12/23 07:29:04;;;;;;;4.47;1.80;;;;;;;;;;5038091;28;20051;-72
2021/12/23 07:31:32;;;;;;;6.75;2.45;;;;;;;;;;5055703;28;20124;-69
2021/12/23 07:34:00;;;;;;;4.30;2.25;;;;;;;;;;5055699;28;20518;-71
2021/12/23 07:36:28;;;;;;;5.90;3.28;;;;;;;;;;5055515;28;20041;-71
2021/12/23 07:38:56;;;;;;;6.72;2.95;;;;;;;;;;5055565;28;20120;-69
2021/12/23 07:41:25;;;;;;;5.13;2.80;;;;;;;;;;5055439;28;20042;-69
2021/12/23 07:46:26;;;;;;;5.05;2.15;;;;;;;;;;5055498;28;20381;-72
2021/12/23 07:48:53;;;;;;;4.82;2.35;;;;;;;;;;5055032;28;20059;-69
2021/12/23 07:51:21;;;;;;;6.43;2.60;;;;;;;;;;5055312;28;20413;-74
2021/12/23 07:53:49;;;;;;;8.18;2.50;;;;;;;;;;5055440;28;20124;-75
2021/12/23 07:56:17;;;;;;;10.30;2.50;;;;;;;;;;5055390;28;20037;-71
2021/12/23 07:58:45;;;;;;;7.20;2.53;;;;;;;;;;5055084;28;20045;-74
2021/12/23 08:01:12;;;;;;;6.70;2.05;;;;;;;;;;5054825;28;20037;-73
2021/12/23 08:03:40;;;;;;;4.70;2.22;;;;;;;;;;5055342;28;20385;-75
2021/12/23 08:06:07;;;;;;;7.45;2.65;;;;;;;;;;5054827;28;20033;-75
2021/12/23 08:08:35;;;;;;;3.38;1.77;;;;;;;;;;5055025;28;20055;-72
2021/12/23 08:11:03;;;;;;;3.70;1.50;;;;;;;;;;5054618;28;20041;-74
2021/12/23 08:13:32;;;;;;;3.75;1.67;;;;;;;;;;5053866;28;20510;-73
2021/12/23 08:16:03;;;;;;;3.92;2.03;;;;;;;;;;5036880;28;20132;-72
2021/12/23 08:18:34;;;;;;;3.20;1.60;;;;;;;;;;5054962;28;20045;-74
2021/12/23 08:21:02;;;;;;;7.65;1.90;;;;;;;;;;5054982;28;20092;-75
2021/12/23 08:23:30;;;;;;;5.25;1.85;;;;;;;;;;5054967;28;20052;-74
2021/12/23 08:26:03;;;;;;;3.72;1.77;;;;;;;;;;5036827;28;20045;-72
2021/12/23 08:28:31;;;;;;;8.73;1.98;;;;;;;;;;5037234;28;20546;-71
2021/12/23 08:31:00;;;;;;;3.03;1.70;;;;;;;;;;5054768;28;20041;-75
2021/12/23 08:33:28;;;;;;;2.42;1.50;;;;;;;;;;5054420;28;20049;-71
2021/12/23 08:35:56;;;;;;;7.00;1.80;;;;;;;;;;5054280;28;20033;-73
2021/12/23 08:38:23;;;;;;;4.50;1.80;;;;;;;;;;5054494;28;20044;-74
2021/12/23 08:40:52;;;;;;;6.43;1.83;;;;;;;;;;5054430;28;20143;-75
2021/12/23 08:43:20;;;;;;;5.85;1.80;;;;;;;;;;5054205;28;20041;-73
2021/12/23 08:45:48;;;;;;;6.32;1.90;;;;;;;;;;5054118;28;20052;-72
2021/12/23 08:48:16;;;;;;;2.72;1.70;;;;;;;;;;5053950;28;20049;-72
2021/12/23 08:50:43;;;;;;;5.15;1.70;;;;;;;;;;5036184;28;20103;-72
2021/12/23 08:53:11;;;;;;;3.67;2.10;;;;;;;;;;5054396;28;20045;-79
2021/12/23 08:55:39;;;;;;;4.15;2.00;;;;;;;;;;5036577;28;20071;-81
2021/12/23 08:58:07;;;;;;;4.80;2.30;;;;;;;;;;5054406;28;20040;-74
2021/12/23 09:00:36;;;;;;;4.10;1.75;;;;;;;;;;5054060;28;20036;-73
2021/12/23 09:03:06;;;;;;;7.40;1.95;;;;;;;;;;5036694;28;20045;-75
2021/12/23 09:05:35;;;;;;;4.28;1.80;;;;;;;;;;5054034;28;20048;-75
2021/12/23 09:08:05;;;;;;;6.82;1.73;;;;;;;;;;5053871;28;20112;-76
2021/12/23 09:10:33;;;;;;;2.92;1.80;;;;;;;;;;5053564;28;20037;-74
2021/12/23 09:13:01;;;;;;;3.15;1.83;;;;;;;;;;5053504;28;20415;-74
2021/12/23 09:15:29;;;;;;;4.80;1.65;;;;;;;;;;5053477;28;20033;-77
2021/12/23 09:17:56;;;;;;;6.35;2.30;;;;;;;;;;5035783;28;20037;-76
2021/12/23 09:20:24;;;;;;;5.22;1.88;;;;;;;;;;5019849;28;20044;-75
2021/12/23 09:22:52;;;;;;;3.15;1.70;;;;;;;;;;5044968;28;20444;-78
2021/12/23 09:25:25;;;;;;;3.20;1.80;;;;;;;;;;5045056;28;20381;-75
2021/12/23 09:33:44;;;;;;;3.13;1.52;;;;;;;;;;5044853;28;20045;-79
2021/12/23 09:36:12;;;;;;;6.03;2.17;;;;;;;;;;5043312;28;20489;-78
2021/12/23 09:38:40;;;;;;;2.92;1.25;;;;;;;;;;5042264;28;20040;-76
2021/12/23 09:41:15;;;;;;;2.38;1.45;;;;;;;;;;5053577;28;20041;-76
2021/12/23 09:43:45;;;;;;;4.57;2.22;;;;;;;;;;5053252;28;20115;-77
2021/12/23 09:46:14;;;;;;;3.40;1.90;;;;;;;;;;5034110;28;20069;-77
2021/12/23 09:48:43;;;;;;;6.57;1.80;;;;;;;;;;5032811;28;20127;-79
2021/12/23 09:51:11;;;;;;;2.50;1.70;;;;;;;;;;5016049;28;20053;-81
2021/12/23 09:53:41;;;;;;;9.20;3.13;;;;;;;;;;5033422;28;20042;-77
2021/12/23 09:56:10;;;;;;;6.53;2.33;;;;;;;;;;5033273;28;20045;-80
2021/12/23 09:58:39;;;;;;;5.65;2.00;;;;;;;;;;5032303;28;20068;-80
2021/12/23 10:01:08;;;;;;;5.07;2.28;;;;;;;;;;5047371;28;20128;-81
2021/12/23 10:03:37;;;;;;;3.22;1.80;;;;;;;;;;5052861;28;20036;-80
2021/12/23 10:06:04;;;;;;;4.43;1.98;;;;;;;;;;5052474;28;20468;-78
2021/12/23 10:08:32;;;;;;;6.82;2.10;;;;;;;;;;5052498;28;20056;-81
2021/12/23 10:11:13;;;;;;;6.28;1.70;;;;;;;;;;5035328;28;20041;-80
2021/12/23 10:31:51;;;;;;;4.93;1.55;;;;;;;;;;4935166;29;20547;-79
2021/12/23 10:37:22;;;;;;;2.70;1.10;;;;;;;;;;4951226;29;20066;-81
2021/12/23 10:39:49;;;;;;;1.80;0.95;;;;;;;;;;4952018;29;20130;-82
2021/12/23 10:42:20;;;;;;;3.67;1.52;;;;;;;;;;4952559;29;20049;-81
2021/12/23 10:44:50;;;;;;;2.15;1.63;;;;;;;;;;5065291;22;20053;-79
2021/12/23 10:47:34;;;;;;;9.60;1.88;;;;;;;;;;5018185;28;20045;-77
2021/12/23 10:50:48;;;;;;;2.22;1.52;;;;;;;;;;5034197;28;20044;-80
2021/12/23 10:53:36;;;;;;;6.38;1.90;;;;;;;;;;5047998;28;20096;-82
2021/12/23 10:59:10;;;;;;;1.80;1.23;;;;;;;;;;5034777;28;20033;-77
2021/12/23 11:01:57;;;;;;;3.95;1.65;;;;;;;;;;5018133;28;20099;-82
2021/12/23 11:04:24;;;;;;;1.90;1.15;;;;;;;;;;5018583;28;20047;-77
2021/12/23 11:07:13;;;;;;;3.72;1.10;;;;;;;;;;5035833;28;20408;-81
2021/12/23 11:10:07;;;;;;;1.73;1.15;;;;;;;;;;5035876;28;20445;-82
2021/12/23 11:40:49;;;;;;;5.10;1.58;;;;;;;;;;5035705;28;20008;-78
2021/12/23 11:43:31;;;;;;;4.18;1.60;;;;;;;;;;5020643;28;20117;-81
2021/12/23 11:45:50;;;;;;;3.55;1.38;;;;;;;;;;5042870;28;20132;-76
2021/12/23 11:48:18;;;;;;;2.95;1.52;;;;;;;;;;5054245;28;20055;-77
2021/12/23 11:51:06;;;;;;;3.95;1.50;;;;;;;;;;5054795;28;20041;-82
2021/12/23 11:53:36;;;;;;;2.78;1.30;;;;;;;;;;5054841;28;20080;-82
2021/12/23 11:56:10;;;;;;;3.83;1.67;;;;;;;;;;5037265;28;20443;-81
2021/12/23 11:58:44;;;;;;;4.47;1.48;;;;;;;;;;5054682;28;20047;-82
2021/12/23 12:01:25;;;;;;;2.70;1.33;;;;;;;;;;5036478;28;20068;-82
2021/12/23 12:04:07;;;;;;;3.92;1.42;;;;;;;;;;5036473;28;20048;-82
2021/12/23 12:06:55;;;;;;;2.75;1.52;;;;;;;;;;5046728;28;20037;-78
2021/12/23 12:09:26;;;;;;;1.77;1.20;;;;;;;;;;5021298;28;20041;-82
2021/12/23 12:12:00;;;;;;;3.92;1.17;;;;;;;;;;5021812;28;20060;-82
2021/12/23 12:14:39;;;;;;;3.70;1.33;;;;;;;;;;5051128;28;20053;-81
2021/12/23 12:17:26;;;;;;;4.28;1.42;;;;;;;;;;5051890;28;20052;-84
2021/12/23 12:20:04;;;;;;;4.93;1.70;;;;;;;;;;5050385;28;20087;-81
2021/12/23 12:22:49;;;;;;;3.10;1.05;;;;;;;;;;5035014;28;20122;-82
2021/12/23 12:25:26;;;;;;;6.10;1.40;;;;;;;;;;5052807;28;20069;-82
2021/12/23 12:28:11;;;;;;;4.63;1.50;;;;;;;;;;5053207;28;20083;-82
2021/12/23 12:30:47;;;;;;;3.00;1.00;;;;;;;;;;5032307;28;20049;-82
2021/12/23 12:33:24;;;;;;;3.80;1.30;;;;;;;;;;5043245;28;20410;-82
2021/12/23 12:35:52;;;;;;;11.07;1.52;;;;;;;;;;5043870;28;20049;-81
2021/12/23 12:38:24;;;;;;;3.08;1.10;;;;;;;;;;5026065;28;20116;-78
2021/12/23 12:40:54;;;;;;;2.88;1.30;;;;;;;;;;5041583;28;20041;-83
2021/12/23 12:43:33;;;;;;;3.20;1.20;;;;;;;;;;5028519;28;20117;-78
2021/12/23 12:46:02;;;;;;;2.70;1.10;;;;;;;;;;5048083;28;20111;-80
2021/12/23 12:48:49;;;;;;;1.73;0.85;;;;;;;;;;5045531;28;20387;-82
2021/12/23 12:51:20;;;;;;;3.22;1.50;;;;;;;;;;5047318;28;20156;-82
2021/12/23 12:53:52;;;;;;;3.22;1.17;;;;;;;;;;5041248;28;20041;-82
2021/12/23 12:56:21;;;;;;;3.53;1.13;;;;;;;;;;5032524;28;20455;-82
2021/12/23 12:58:54;;;;;;;1.17;1.00;;;;;;;;;;5029689;28;20463;-81
2021/12/23 13:01:32;;;;;;;3.30;1.27;;;;;;;;;;5052273;28;20123;-83
2021/12/23 13:04:04;;;;;;;3.03;1.30;;;;;;;;;;5044415;28;20432;-82
2021/12/23 13:06:42;;;;;;;2.53;1.00;;;;;;;;;;5000159;28;20057;-82
2021/12/23 13:09:36;;;;;;;3.42;1.73;;;;;;;;;;5040612;28;20056;-82
2021/12/23 13:12:32;;;;;;;3.17;1.70;;;;;;;;;;5042058;28;20132;-82
2021/12/23 13:15:24;;;;;;;1.38;1.25;;;;;;;;;;5043769;28;20049;-82
2021/12/23 13:18:18;;;;;;;2.78;1.20;;;;;;;;;;5035718;28;20037;-83
2021/12/23 13:21:06;;;;;;;2.55;1.40;;;;;;;;;;5035486;28;20388;-83
2021/12/23 13:23:38;;;;;;;1.58;0.93;;;;;;;;;;5038687;28;20140;-83
2021/12/23 13:26:11;;;;;;;2.75;1.40;;;;;;;;;;5038230;28;20034;-86
2021/12/23 13:28:40;;;;;;;6.53;1.50;;;;;;;;;;5032601;28;20140;-86
2021/12/23 13:31:10;;;;;;;4.00;1.83;;;;;;;;;;5023936;28;20049;-77
2021/12/23 13:33:58;;;;;;;2.33;1.30;;;;;;;;;;5044317;28;20056;-81
2021/12/23 13:36:30;;;;;;;3.50;1.42;;;;;;;;;;5041350;28;20073;-86
2021/12/23 13:39:03;;;;;;;2.85;1.48;;;;;;;;;;5043939;28;20060;-81
2021/12/23 13:41:32;;;;;;;3.58;1.85;;;;;;;;;;5046083;28;20116;-81
2021/12/23 13:44:01;;;;;;;3.00;1.38;;;;;;;;;;5049956;28;20043;-83
2021/12/23 13:46:32;;;;;;;1.25;1.10;;;;;;;;;;5061685;28;20126;-80
2021/12/23 13:49:01;;;;;;;3.53;1.35;;;;;;;;;;5072803;28;20040;-79
2021/12/23 13:51:31;;;;;;;1.70;1.23;;;;;;;;;;5068000;28;20040;-79
2021/12/23 13:54:02;;;;;;;2.88;1.25;;;;;;;;;;5069680;28;20487;-79
2021/12/23 13:56:32;;;;;;;7.57;1.38;;;;;;;;;;5071702;28;20072;-78
2021/12/23 13:59:10;;;;;;;2.22;1.23;;;;;;;;;;5072275;28;20039;-78
2021/12/23 14:01:53;;;;;;;2.00;1.45;;;;;;;;;;5071744;28;20045;-84
2021/12/23 14:04:38;;;;;;;3.00;1.67;;;;;;;;;;5072182;28;20032;-78
2021/12/23 14:07:11;;;;;;;1.55;1.08;;;;;;;;;;5071748;28;20411;-81
2021/12/23 14:09:58;;;;;;;3.30;1.23;;;;;;;;;;5072123;28;20472;-83
2021/12/23 14:12:41;;;;;;;3.88;1.55;;;;;;;;;;5053724;28;20048;-81
2021/12/23 14:15:09;;;;;;;1.98;1.10;;;;;;;;;;5071611;28;20470;-80
2021/12/23 14:18:26;;;;;;;2.28;1.48;;;;;;;;;;5071985;28;20055;-79
2021/12/23 14:23:27;;;;;;;4.07;1.70;;;;;;;;;;5071847;28;20432;-77
2021/12/23 14:26:03;;;;;;;7.78;1.60;;;;;;;;;;5071556;28;20113;-78
2021/12/23 14:28:30;;;;;;;3.17;1.08;;;;;;;;;;5054046;28;20432;-78
2021/12/23 14:31:06;;;;;;;2.78;1.30;;;;;;;;;;5068610;28;20048;-83
2021/12/23 14:33:41;;;;;;;2.53;1.15;;;;;;;;;;5038133;28;20045;-77
2021/12/23 14:36:18;;;;;;;1.90;1.40;;;;;;;;;;5056108;28;20049;-82
2021/12/23 14:39:04;;;;;;;3.60;1.40;;;;;;;;;;5053301;28;20052;-82
2021/12/23 14:41:48;;;;;;;1.80;1.15;;;;;;;;;;5069529;28;20041;-77
2021/12/23 14:44:16;;;;;;;1.98;1.10;;;;;;;;;;5054766;28;20029;-77
2021/12/23 14:46:48;;;;;;;3.03;1.60;;;;;;;;;;5035896;28;20056;-78
2021/12/23 14:52:21;;;;;;;1.95;1.30;;;;;;;;;;5055088;28;20120;-81
2021/12/23 14:54:51;;;;;;;2.78;1.52;;;;;;;;;;5052929;28;20037;-81
2021/12/23 14:57:20;;;;;;;4.25;1.88;;;;;;;;;;5055823;28;20128;-81
2021/12/23 14:59:49;;;;;;;2.40;1.63;;;;;;;;;;5032769;28;20034;-80
2021/12/23 15:02:18;;;;;;;2.60;1.77;;;;;;;;;;5037073;28;20403;-80
2021/12/23 15:04:58;;;;;;;6.18;1.77;;;;;;;;;;5049589;28;20086;-79
2021/12/23 15:07:44;;;;;;;3.92;2.08;;;;;;;;;;5055689;28;20051;-80
2021/12/23 15:10:12;;;;;;;4.90;1.98;;;;;;;;;;5054352;28;20048;-79
2021/12/23 15:12:40;;;;;;;2.90;1.50;;;;;;;;;;5051073;28;20037;-82
2021/12/23 15:15:09;;;;;;;5.32;1.52;;;;;;;;;;5054038;28;20069;-81
2021/12/23 15:17:48;;;;;;;9.68;4.80;;;;;;;;;;5047527;28;20526;-82
2021/12/23 15:20:29;;;;;;;5.45;1.90;;;;;;;;;;5037518;28;20045;-81
2021/12/23 15:23:00;;;;;;;2.72;2.05;;;;;;;;;;5049910;28;20123;-80
2021/12/23 15:25:34;;;;;;;4.70;2.33;;;;;;;;;;5054608;28;20081;-81
2021/12/23 15:28:02;;;;;;;;;;;;;;;;;;5063761;28;20384;-77
2021/12/23 15:30:32;;;;;;;3.45;1.75;;;;;;;;;;5065164;28;19920;-81
2021/12/23 15:33:01;;;;;;;8.15;2.28;;;;;;;;;;5042331;28;20072;-81
2021/12/23 15:35:31;;;;;;;3.33;2.20;;;;;;;;;;5053278;28;20094;-80
2021/12/23 15:38:00;;;;;;;2.92;1.63;;;;;;;;;;5052591;28;20633;-78
2021/12/23 15:40:30;;;;;;;2.65;1.95;;;;;;;;;;5040942;28;20051;-81
2021/12/23 15:43:02;;;;;;;5.40;2.13;;;;;;;;;;5034335;28;20049;-81
2021/12/23 15:45:31;;;;;;;4.80;1.92;;;;;;;;;;5035641;28;20103;-80
2021/12/23 15:47:59;;;;;;;8.25;2.15;;;;;;;;;;5045129;28;20065;-80
2021/12/23 15:50:28;;;;;;;2.85;1.90;;;;;;;;;;5017681;28;20041;-77
2021/12/23 15:53:00;;;;;;;4.95;2.20;;;;;;;;;;5035244;28;20049;-80
2021/12/23 15:55:31;;;;;;;8.13;2.10;;;;;;;;;;5034199;28;20050;-79
2021/12/23 15:57:58;;;;;;;4.05;2.00;;;;;;;;;;5038136;28;20037;-80
2021/12/23 16:00:26;;;;;;;2.63;2.10;;;;;;;;;;5031798;28;20042;-79
2021/12/23 16:02:55;;;;;;;4.45;2.63;;;;;;;;;;5036545;28;20033;-80
2021/12/23 16:07:51;;;;;;;7.03;2.83;;;;;;;;;;5054541;28;20536;-79
2021/12/23 16:10:23;;;;;;;5.85;2.88;;;;;;;;;;5054577;28;20112;-80
2021/12/23 16:12:52;;;;;;;6.13;2.78;;;;;;;;;;5034994;28;20033;-76
2021/12/23 16:15:21;;;;;;;3.42;2.50;;;;;;;;;;5049198;28;20051;-78
2021/12/23 16:17:49;;;;;;;5.05;3.22;;;;;;;;;;5036237;28;20038;-80
2021/12/23 16:20:18;;;;;;;3.85;2.60;;;;;;;;;;5035296;28;20038;-80
2021/12/23 16:22:45;;;;;;;3.78;2.70;;;;;;;;;;5035061;28;20037;-77